sensor_id;sensor_type;location;lat;lon;timestamp;P1;durP1;ratioP1;P2;durP2;ratioP2
22490;SDS011;11412;50.802;4.350;2022-07-29T00:00:38;3.58;;;1.80;;
22490;SDS011;11412;50.802;4.350;2022-07-29T00:03:03;3.50;;;1.52;;
22490;SDS011;11412;50.802;4.350;2022-07-29T00:05:29;2.17;;;1.20;;
22490;SDS011;11412;50.802;4.350;2022-07-29T00:07:55;1.33;;;1.23;;
22490;SDS011;11412;50.802;4.350;2022-07-29T00:10:21;1.85;;;1.50;;
22490;SDS011;11412;50.802;4.350;2022-07-29T00:12:46;6.45;;;1.50;;
22490;SDS011;11412;50.802;4.350;2022-07-29T00:15:12;6.50;;;1.58;;
22490;SDS011;11412;50.802;4.350;2022-07-29T00:17:38;2.55;;;1.25;;
22490;SDS011;11412;50.802;4.350;2022-07-29T00:20:04;4.85;;;1.20;;
22490;SDS011;11412;50.802;4.350;2022-07-29T00:22:30;2.42;;;1.13;;
22490;SDS011;11412;50.802;4.350;2022-07-29T00:24:56;3.03;;;1.42;;
22490;SDS011;11412;50.802;4.350;2022-07-29T00:27:21;6.07;;;1.10;;
22490;SDS011;11412;50.802;4.350;2022-07-29T00:29:47;2.53;;;1.25;;
22490;SDS011;11412;50.802;4.350;2022-07-29T00:32:13;4.10;;;0.98;;
22490;SDS011;11412;50.802;4.350;2022-07-29T00:34:39;1.90;;;1.40;;
22490;SDS011;11412;50.802;4.350;2022-07-29T00:37:23;8.52;;;1.65;;
22490;SDS011;11412;50.802;4.350;2022-07-29T00:39:49;4.00;;;1.30;;
22490;SDS011;11412;50.802;4.350;2022-07-29T00:42:15;6.78;;;1.77;;
22490;SDS011;11412;50.802;4.350;2022-07-29T00:44:41;7.00;;;1.30;;
22490;SDS011;11412;50.802;4.350;2022-07-29T00:47:08;3.17;;;1.20;;
22490;SDS011;11412;50.802;4.350;2022-07-29T00:49:35;2.50;;;1.33;;
22490;SDS011;11412;50.802;4.350;2022-07-29T00:52:05;5.25;;;1.65;;
22490;SDS011;11412;50.802;4.350;2022-07-29T00:54:32;3.70;;;1.30;;
22490;SDS011;11412;50.802;4.350;2022-07-29T00:56:58;4.88;;;1.30;;
22490;SDS011;11412;50.802;4.350;2022-07-29T00:59:25;4.03;;;1.58;;
22490;SDS011;11412;50.802;4.350;2022-07-29T01:01:52;4.25;;;1.42;;
22490;SDS011;11412;50.802;4.350;2022-07-29T01:04:19;4.55;;;1.50;;
22490;SDS011;11412;50.802;4.350;2022-07-29T01:06:46;3.42;;;1.50;;
22490;SDS011;11412;50.802;4.350;2022-07-29T01:09:13;2.05;;;1.33;;
22490;SDS011;11412;50.802;4.350;2022-07-29T01:11:41;2.55;;;1.20;;
22490;SDS011;11412;50.802;4.350;2022-07-29T01:14:08;2.15;;;1.10;;
22490;SDS011;11412;50.802;4.350;2022-07-29T01:16:40;6.65;;;1.30;;
22490;SDS011;11412;50.802;4.350;2022-07-29T01:22:10;1.05;;;1.05;;
22490;SDS011;11412;50.802;4.350;2022-07-29T01:25:03;3.15;;;1.40;;
22490;SDS011;11412;50.802;4.350;2022-07-29T01:30:15;3.00;;;1.40;;
22490;SDS011;11412;50.802;4.350;2022-07-29T01:32:41;2.65;;;1.27;;
22490;SDS011;11412;50.802;4.350;2022-07-29T01:35:20;3.45;;;1.55;;
22490;SDS011;11412;50.802;4.350;2022-07-29T01:38:04;1.63;;;1.20;;
22490;SDS011;11412;50.802;4.350;2022-07-29T01:41:16;3.10;;;1.30;;
22490;SDS011;11412;50.802;4.350;2022-07-29T01:43:48;3.42;;;1.38;;
22490;SDS011;11412;50.802;4.350;2022-07-29T01:46:25;2.23;;;1.20;;
22490;SDS011;11412;50.802;4.350;2022-07-29T01:49:15;3.25;;;1.23;;
22490;SDS011;11412;50.802;4.350;2022-07-29T01:51:51;7.03;;;1.42;;
22490;SDS011;11412;50.802;4.350;2022-07-29T01:54:22;2.15;;;1.25;;
22490;SDS011;11412;50.802;4.350;2022-07-29T01:56:55;4.68;;;1.55;;
22490;SDS011;11412;50.802;4.350;2022-07-29T01:59:21;6.15;;;1.30;;
22490;SDS011;11412;50.802;4.350;2022-07-29T02:01:50;1.55;;;1.30;;
22490;SDS011;11412;50.802;4.350;2022-07-29T02:04:19;7.00;;;1.45;;
22490;SDS011;11412;50.802;4.350;2022-07-29T02:06:45;3.78;;;1.40;;
22490;SDS011;11412;50.802;4.350;2022-07-29T02:09:14;2.20;;;1.45;;
22490;SDS011;11412;50.802;4.350;2022-07-29T02:11:41;2.80;;;1.48;;
22490;SDS011;11412;50.802;4.350;2022-07-29T02:14:12;3.78;;;1.27;;
22490;SDS011;11412;50.802;4.350;2022-07-29T02:16:41;2.17;;;1.40;;
22490;SDS011;11412;50.802;4.350;2022-07-29T02:19:08;4.32;;;1.40;;
22490;SDS011;11412;50.802;4.350;2022-07-29T02:21:37;4.28;;;1.35;;
22490;SDS011;11412;50.802;4.350;2022-07-29T02:24:04;5.45;;;1.30;;
22490;SDS011;11412;50.802;4.350;2022-07-29T02:26:30;6.35;;;1.27;;
22490;SDS011;11412;50.802;4.350;2022-07-29T02:28:57;1.38;;;1.27;;
22490;SDS011;11412;50.802;4.350;2022-07-29T02:31:26;5.72;;;1.40;;
22490;SDS011;11412;50.802;4.350;2022-07-29T02:33:57;4.32;;;1.50;;
22490;SDS011;11412;50.802;4.350;2022-07-29T02:36:24;3.25;;;1.50;;
22490;SDS011;11412;50.802;4.350;2022-07-29T02:38:52;2.83;;;1.13;;
22490;SDS011;11412;50.802;4.350;2022-07-29T02:41:29;3.20;;;1.55;;
22490;SDS011;11412;50.802;4.350;2022-07-29T02:44:11;5.20;;;1.17;;
22490;SDS011;11412;50.802;4.350;2022-07-29T02:46:43;3.63;;;1.55;;
22490;SDS011;11412;50.802;4.350;2022-07-29T02:55:00;5.32;;;1.50;;
22490;SDS011;11412;50.802;4.350;2022-07-29T02:57:41;3.42;;;1.02;;
22490;SDS011;11412;50.802;4.350;2022-07-29T03:00:40;5.75;;;2.25;;
22490;SDS011;11412;50.802;4.350;2022-07-29T03:03:09;2.70;;;1.40;;
22490;SDS011;11412;50.802;4.350;2022-07-29T03:05:38;2.03;;;1.80;;
22490;SDS011;11412;50.802;4.350;2022-07-29T03:08:05;3.15;;;1.40;;
22490;SDS011;11412;50.802;4.350;2022-07-29T03:10:33;2.45;;;1.40;;
22490;SDS011;11412;50.802;4.350;2022-07-29T03:12:59;1.50;;;1.20;;
22490;SDS011;11412;50.802;4.350;2022-07-29T03:15:25;3.58;;;1.23;;
22490;SDS011;11412;50.802;4.350;2022-07-29T03:17:53;2.88;;;1.77;;
22490;SDS011;11412;50.802;4.350;2022-07-29T03:20:20;2.33;;;1.35;;
22490;SDS011;11412;50.802;4.350;2022-07-29T03:22:46;6.90;;;1.70;;
22490;SDS011;11412;50.802;4.350;2022-07-29T03:25:13;3.05;;;1.35;;
22490;SDS011;11412;50.802;4.350;2022-07-29T03:27:40;3.35;;;1.40;;
22490;SDS011;11412;50.802;4.350;2022-07-29T03:30:06;2.58;;;1.33;;
22490;SDS011;11412;50.802;4.350;2022-07-29T03:32:33;4.22;;;1.23;;
22490;SDS011;11412;50.802;4.350;2022-07-29T03:34:59;2.58;;;1.30;;
22490;SDS011;11412;50.802;4.350;2022-07-29T03:37:25;2.47;;;1.75;;
22490;SDS011;11412;50.802;4.350;2022-07-29T03:39:51;2.63;;;1.17;;
22490;SDS011;11412;50.802;4.350;2022-07-29T03:42:19;3.63;;;1.58;;
22490;SDS011;11412;50.802;4.350;2022-07-29T03:44:48;3.50;;;1.50;;
22490;SDS011;11412;50.802;4.350;2022-07-29T03:47:17;2.08;;;1.48;;
22490;SDS011;11412;50.802;4.350;2022-07-29T03:49:48;3.15;;;1.60;;
22490;SDS011;11412;50.802;4.350;2022-07-29T03:52:17;1.58;;;1.35;;
22490;SDS011;11412;50.802;4.350;2022-07-29T03:54:43;2.97;;;1.63;;
22490;SDS011;11412;50.802;4.350;2022-07-29T03:57:10;5.45;;;1.40;;
22490;SDS011;11412;50.802;4.350;2022-07-29T03:59:37;2.78;;;1.40;;
22490;SDS011;11412;50.802;4.350;2022-07-29T04:02:04;4.35;;;1.65;;
22490;SDS011;11412;50.802;4.350;2022-07-29T04:04:34;1.40;;;1.30;;
22490;SDS011;11412;50.802;4.350;2022-07-29T04:07:01;2.35;;;1.40;;
22490;SDS011;11412;50.802;4.350;2022-07-29T04:09:26;5.70;;;1.15;;
22490;SDS011;11412;50.802;4.350;2022-07-29T04:11:52;5.63;;;1.70;;
22490;SDS011;11412;50.802;4.350;2022-07-29T04:14:18;1.75;;;1.63;;
22490;SDS011;11412;50.802;4.350;2022-07-29T04:16:44;3.38;;;1.48;;
22490;SDS011;11412;50.802;4.350;2022-07-29T04:19:09;2.85;;;1.42;;
22490;SDS011;11412;50.802;4.350;2022-07-29T04:21:38;2.53;;;1.67;;
22490;SDS011;11412;50.802;4.350;2022-07-29T04:24:05;3.30;;;1.33;;
22490;SDS011;11412;50.802;4.350;2022-07-29T04:26:31;2.90;;;1.55;;
22490;SDS011;11412;50.802;4.350;2022-07-29T04:28:57;3.28;;;1.50;;
22490;SDS011;11412;50.802;4.350;2022-07-29T04:31:23;2.33;;;1.60;;
22490;SDS011;11412;50.802;4.350;2022-07-29T04:33:49;4.18;;;1.80;;
22490;SDS011;11412;50.802;4.350;2022-07-29T04:36:14;6.00;;;1.73;;
22490;SDS011;11412;50.802;4.350;2022-07-29T04:38:40;2.65;;;1.60;;
22490;SDS011;11412;50.802;4.350;2022-07-29T04:41:05;3.70;;;1.90;;
22490;SDS011;11412;50.802;4.350;2022-07-29T04:43:32;4.03;;;1.42;;
22490;SDS011;11412;50.802;4.350;2022-07-29T04:45:59;1.55;;;1.45;;
22490;SDS011;11412;50.802;4.350;2022-07-29T04:48:25;4.97;;;1.83;;
22490;SDS011;11412;50.802;4.350;2022-07-29T04:50:51;3.33;;;2.10;;
22490;SDS011;11412;50.802;4.350;2022-07-29T04:53:17;4.30;;;1.83;;
22490;SDS011;11412;50.802;4.350;2022-07-29T04:55:42;2.30;;;1.27;;
22490;SDS011;11412;50.802;4.350;2022-07-29T04:58:08;3.17;;;1.98;;
22490;SDS011;11412;50.802;4.350;2022-07-29T05:00:34;4.70;;;1.80;;
22490;SDS011;11412;50.802;4.350;2022-07-29T05:03:00;3.88;;;1.73;;
22490;SDS011;11412;50.802;4.350;2022-07-29T05:05:25;3.97;;;1.90;;
22490;SDS011;11412;50.802;4.350;2022-07-29T05:07:51;5.38;;;1.80;;
22490;SDS011;11412;50.802;4.350;2022-07-29T05:10:16;4.60;;;1.75;;
22490;SDS011;11412;50.802;4.350;2022-07-29T05:12:42;6.00;;;1.80;;
22490;SDS011;11412;50.802;4.350;2022-07-29T05:15:08;6.03;;;2.40;;
22490;SDS011;11412;50.802;4.350;2022-07-29T05:17:34;3.80;;;1.85;;
22490;SDS011;11412;50.802;4.350;2022-07-29T05:20:00;4.85;;;2.00;;
22490;SDS011;11412;50.802;4.350;2022-07-29T05:22:26;2.45;;;2.10;;
22490;SDS011;11412;50.802;4.350;2022-07-29T05:24:51;2.67;;;1.85;;
22490;SDS011;11412;50.802;4.350;2022-07-29T05:27:17;5.15;;;2.05;;
22490;SDS011;11412;50.802;4.350;2022-07-29T05:29:42;4.28;;;2.72;;
22490;SDS011;11412;50.802;4.350;2022-07-29T05:32:09;6.70;;;2.88;;
22490;SDS011;11412;50.802;4.350;2022-07-29T05:34:35;9.45;;;2.95;;
22490;SDS011;11412;50.802;4.350;2022-07-29T05:37:00;7.07;;;2.70;;
22490;SDS011;11412;50.802;4.350;2022-07-29T05:39:26;3.28;;;2.28;;
22490;SDS011;11412;50.802;4.350;2022-07-29T05:41:52;4.47;;;2.53;;
22490;SDS011;11412;50.802;4.350;2022-07-29T05:44:17;4.05;;;2.20;;
22490;SDS011;11412;50.802;4.350;2022-07-29T05:46:43;6.22;;;2.35;;
22490;SDS011;11412;50.802;4.350;2022-07-29T05:49:09;6.65;;;2.90;;
22490;SDS011;11412;50.802;4.350;2022-07-29T05:51:34;5.40;;;2.78;;
22490;SDS011;11412;50.802;4.350;2022-07-29T05:54:00;2.58;;;2.17;;
22490;SDS011;11412;50.802;4.350;2022-07-29T05:56:26;3.65;;;2.60;;
22490;SDS011;11412;50.802;4.350;2022-07-29T05:58:52;6.95;;;2.80;;
22490;SDS011;11412;50.802;4.350;2022-07-29T06:01:18;2.95;;;2.25;;
22490;SDS011;11412;50.802;4.350;2022-07-29T06:03:44;5.45;;;2.63;;
22490;SDS011;11412;50.802;4.350;2022-07-29T06:06:10;6.57;;;2.60;;
22490;SDS011;11412;50.802;4.350;2022-07-29T06:08:36;8.57;;;2.65;;
22490;SDS011;11412;50.802;4.350;2022-07-29T06:11:02;4.93;;;2.60;;
22490;SDS011;11412;50.802;4.350;2022-07-29T06:13:29;4.38;;;2.53;;
22490;SDS011;11412;50.802;4.350;2022-07-29T06:15:55;4.55;;;2.70;;
22490;SDS011;11412;50.802;4.350;2022-07-29T06:18:20;4.00;;;2.28;;
22490;SDS011;11412;50.802;4.350;2022-07-29T06:20:52;3.50;;;2.47;;
22490;SDS011;11412;50.802;4.350;2022-07-29T06:23:18;4.88;;;2.33;;
22490;SDS011;11412;50.802;4.350;2022-07-29T06:25:45;5.75;;;2.80;;
22490;SDS011;11412;50.802;4.350;2022-07-29T06:28:10;4.32;;;2.47;;
22490;SDS011;11412;50.802;4.350;2022-07-29T06:30:36;4.85;;;2.90;;
22490;SDS011;11412;50.802;4.350;2022-07-29T06:33:02;7.00;;;3.05;;
22490;SDS011;11412;50.802;4.350;2022-07-29T06:35:28;5.32;;;2.70;;
22490;SDS011;11412;50.802;4.350;2022-07-29T06:37:54;3.83;;;2.72;;
22490;SDS011;11412;50.802;4.350;2022-07-29T06:40:20;2.85;;;2.60;;
22490;SDS011;11412;50.802;4.350;2022-07-29T06:43:04;5.45;;;2.90;;
22490;SDS011;11412;50.802;4.350;2022-07-29T06:45:33;7.57;;;2.85;;
22490;SDS011;11412;50.802;4.350;2022-07-29T06:47:59;3.80;;;3.42;;
22490;SDS011;11412;50.802;4.350;2022-07-29T06:50:25;3.30;;;3.00;;
22490;SDS011;11412;50.802;4.350;2022-07-29T06:52:51;5.45;;;3.00;;
22490;SDS011;11412;50.802;4.350;2022-07-29T06:55:16;6.47;;;2.80;;
22490;SDS011;11412;50.802;4.350;2022-07-29T06:57:44;4.25;;;2.80;;
22490;SDS011;11412;50.802;4.350;2022-07-29T07:00:10;4.35;;;2.83;;
22490;SDS011;11412;50.802;4.350;2022-07-29T07:02:36;9.88;;;2.83;;
22490;SDS011;11412;50.802;4.350;2022-07-29T07:05:02;4.13;;;2.78;;
22490;SDS011;11412;50.802;4.350;2022-07-29T07:07:28;4.30;;;2.33;;
22490;SDS011;11412;50.802;4.350;2022-07-29T07:09:54;3.25;;;2.80;;
22490;SDS011;11412;50.802;4.350;2022-07-29T07:12:19;5.45;;;2.80;;
22490;SDS011;11412;50.802;4.350;2022-07-29T07:14:45;3.33;;;2.60;;
22490;SDS011;11412;50.802;4.350;2022-07-29T07:17:10;4.70;;;2.67;;
22490;SDS011;11412;50.802;4.350;2022-07-29T07:19:36;3.00;;;2.63;;
22490;SDS011;11412;50.802;4.350;2022-07-29T07:22:02;4.53;;;2.83;;
22490;SDS011;11412;50.802;4.350;2022-07-29T07:24:27;7.55;;;3.17;;
22490;SDS011;11412;50.802;4.350;2022-07-29T07:26:53;6.07;;;2.95;;
22490;SDS011;11412;50.802;4.350;2022-07-29T07:29:19;5.82;;;3.05;;
22490;SDS011;11412;50.802;4.350;2022-07-29T07:31:44;4.65;;;3.22;;
22490;SDS011;11412;50.802;4.350;2022-07-29T07:34:10;6.65;;;2.83;;
22490;SDS011;11412;50.802;4.350;2022-07-29T07:36:36;5.60;;;3.03;;
22490;SDS011;11412;50.802;4.350;2022-07-29T07:39:01;6.65;;;3.17;;
22490;SDS011;11412;50.802;4.350;2022-07-29T07:41:28;7.63;;;3.38;;
22490;SDS011;11412;50.802;4.350;2022-07-29T07:43:54;4.70;;;3.10;;
22490;SDS011;11412;50.802;4.350;2022-07-29T07:46:19;6.68;;;3.67;;
22490;SDS011;11412;50.802;4.350;2022-07-29T07:48:45;9.02;;;3.65;;
22490;SDS011;11412;50.802;4.350;2022-07-29T07:51:11;5.03;;;3.17;;
22490;SDS011;11412;50.802;4.350;2022-07-29T07:53:36;10.23;;;2.78;;
22490;SDS011;11412;50.802;4.350;2022-07-29T07:56:02;8.68;;;3.20;;
22490;SDS011;11412;50.802;4.350;2022-07-29T07:58:29;4.85;;;2.47;;
22490;SDS011;11412;50.802;4.350;2022-07-29T08:00:55;5.03;;;2.63;;
22490;SDS011;11412;50.802;4.350;2022-07-29T08:03:20;4.70;;;2.95;;
22490;SDS011;11412;50.802;4.350;2022-07-29T08:05:46;5.93;;;3.17;;
22490;SDS011;11412;50.802;4.350;2022-07-29T08:08:13;4.82;;;3.10;;
22490;SDS011;11412;50.802;4.350;2022-07-29T08:10:38;6.85;;;3.25;;
22490;SDS011;11412;50.802;4.350;2022-07-29T08:13:21;6.38;;;3.38;;
22490;SDS011;11412;50.802;4.350;2022-07-29T08:15:49;8.32;;;3.38;;
22490;SDS011;11412;50.802;4.350;2022-07-29T08:18:25;5.30;;;3.22;;
22490;SDS011;11412;50.802;4.350;2022-07-29T08:20:56;6.50;;;2.97;;
22490;SDS011;11412;50.802;4.350;2022-07-29T08:23:22;6.15;;;2.60;;
22490;SDS011;11412;50.802;4.350;2022-07-29T08:25:49;2.72;;;2.53;;
22490;SDS011;11412;50.802;4.350;2022-07-29T08:28:15;3.63;;;2.25;;
22490;SDS011;11412;50.802;4.350;2022-07-29T08:30:41;3.92;;;2.60;;
22490;SDS011;11412;50.802;4.350;2022-07-29T08:33:07;5.13;;;2.70;;
22490;SDS011;11412;50.802;4.350;2022-07-29T08:35:32;3.58;;;2.85;;
22490;SDS011;11412;50.802;4.350;2022-07-29T08:37:58;2.83;;;2.38;;
22490;SDS011;11412;50.802;4.350;2022-07-29T08:40:24;3.20;;;2.30;;
22490;SDS011;11412;50.802;4.350;2022-07-29T08:42:50;5.82;;;2.40;;
22490;SDS011;11412;50.802;4.350;2022-07-29T08:45:15;7.90;;;2.67;;
22490;SDS011;11412;50.802;4.350;2022-07-29T08:47:41;4.40;;;2.30;;
22490;SDS011;11412;50.802;4.350;2022-07-29T08:50:09;3.58;;;1.95;;
22490;SDS011;11412;50.802;4.350;2022-07-29T08:52:36;8.82;;;2.20;;
22490;SDS011;11412;50.802;4.350;2022-07-29T08:55:04;4.32;;;1.95;;
22490;SDS011;11412;50.802;4.350;2022-07-29T08:57:31;5.82;;;1.90;;
22490;SDS011;11412;50.802;4.350;2022-07-29T08:59:59;4.80;;;1.90;;
22490;SDS011;11412;50.802;4.350;2022-07-29T09:02:26;3.38;;;1.83;;
22490;SDS011;11412;50.802;4.350;2022-07-29T09:04:58;2.28;;;1.77;;
22490;SDS011;11412;50.802;4.350;2022-07-29T09:07:25;1.70;;;1.60;;
22490;SDS011;11412;50.802;4.350;2022-07-29T09:09:51;2.40;;;1.60;;
22490;SDS011;11412;50.802;4.350;2022-07-29T09:12:16;3.53;;;1.95;;
22490;SDS011;11412;50.802;4.350;2022-07-29T09:14:42;3.95;;;1.80;;
22490;SDS011;11412;50.802;4.350;2022-07-29T09:17:08;1.63;;;1.48;;
22490;SDS011;11412;50.802;4.350;2022-07-29T09:19:34;3.63;;;1.77;;
22490;SDS011;11412;50.802;4.350;2022-07-29T09:22:02;1.95;;;1.70;;
22490;SDS011;11412;50.802;4.350;2022-07-29T09:24:40;2.10;;;1.45;;
22490;SDS011;11412;50.802;4.350;2022-07-29T09:27:20;6.38;;;1.48;;
22490;SDS011;11412;50.802;4.350;2022-07-29T09:30:06;1.73;;;1.60;;
22490;SDS011;11412;50.802;4.350;2022-07-29T09:32:53;4.43;;;1.92;;
22490;SDS011;11412;50.802;4.350;2022-07-29T09:35:25;1.85;;;1.50;;
22490;SDS011;11412;50.802;4.350;2022-07-29T09:37:52;4.35;;;1.30;;
22490;SDS011;11412;50.802;4.350;2022-07-29T09:40:22;4.57;;;1.70;;
22490;SDS011;11412;50.802;4.350;2022-07-29T09:42:49;4.00;;;2.00;;
22490;SDS011;11412;50.802;4.350;2022-07-29T09:45:26;4.80;;;1.95;;
22490;SDS011;11412;50.802;4.350;2022-07-29T09:47:58;4.88;;;1.73;;
22490;SDS011;11412;50.802;4.350;2022-07-29T09:50:40;4.50;;;1.65;;
22490;SDS011;11412;50.802;4.350;2022-07-29T09:53:08;7.30;;;1.83;;
22490;SDS011;11412;50.802;4.350;2022-07-29T09:55:50;2.45;;;1.63;;
22490;SDS011;11412;50.802;4.350;2022-07-29T09:58:17;4.75;;;1.30;;
22490;SDS011;11412;50.802;4.350;2022-07-29T10:00:46;3.60;;;2.00;;
22490;SDS011;11412;50.802;4.350;2022-07-29T10:03:14;3.80;;;1.80;;
22490;SDS011;11412;50.802;4.350;2022-07-29T10:05:40;4.30;;;2.40;;
22490;SDS011;11412;50.802;4.350;2022-07-29T10:08:07;2.88;;;1.40;;
22490;SDS011;11412;50.802;4.350;2022-07-29T10:10:37;1.95;;;1.50;;
22490;SDS011;11412;50.802;4.350;2022-07-29T10:13:05;4.07;;;2.33;;
22490;SDS011;11412;50.802;4.350;2022-07-29T10:15:36;4.28;;;1.90;;
22490;SDS011;11412;50.802;4.350;2022-07-29T10:18:05;4.10;;;1.48;;
22490;SDS011;11412;50.802;4.350;2022-07-29T10:20:32;7.32;;;1.75;;
22490;SDS011;11412;50.802;4.350;2022-07-29T10:22:58;2.85;;;1.50;;
22490;SDS011;11412;50.802;4.350;2022-07-29T10:25:24;2.38;;;1.30;;
22490;SDS011;11412;50.802;4.350;2022-07-29T10:27:51;3.25;;;1.73;;
22490;SDS011;11412;50.802;4.350;2022-07-29T10:30:17;3.60;;;2.10;;
22490;SDS011;11412;50.802;4.350;2022-07-29T10:35:19;3.75;;;1.95;;
22490;SDS011;11412;50.802;4.350;2022-07-29T10:44:01;3.25;;;2.08;;
22490;SDS011;11412;50.802;4.350;2022-07-29T10:46:34;5.60;;;1.55;;
22490;SDS011;11412;50.802;4.350;2022-07-29T10:51:53;2.63;;;1.42;;
22490;SDS011;11412;50.802;4.350;2022-07-29T10:57:10;2.90;;;1.80;;
22490;SDS011;11412;50.802;4.350;2022-07-29T10:59:36;4.32;;;1.52;;
22490;SDS011;11412;50.802;4.350;2022-07-29T11:02:02;5.75;;;1.55;;
22490;SDS011;11412;50.802;4.350;2022-07-29T11:07:16;3.53;;;1.67;;
22490;SDS011;11412;50.802;4.350;2022-07-29T11:09:42;6.32;;;1.50;;
22490;SDS011;11412;50.802;4.350;2022-07-29T11:15:17;4.20;;;1.75;;
22490;SDS011;11412;50.802;4.350;2022-07-29T11:20:41;4.53;;;1.65;;
22490;SDS011;11412;50.802;4.350;2022-07-29T11:39:32;3.70;;;1.63;;
22490;SDS011;11412;50.802;4.350;2022-07-29T11:45:01;2.70;;;1.65;;
22490;SDS011;11412;50.802;4.350;2022-07-29T11:47:31;4.90;;;1.80;;
22490;SDS011;11412;50.802;4.350;2022-07-29T11:50:02;5.70;;;1.90;;
22490;SDS011;11412;50.802;4.350;2022-07-29T11:52:36;4.35;;;1.60;;
22490;SDS011;11412;50.802;4.350;2022-07-29T11:55:08;3.25;;;2.75;;
22490;SDS011;11412;50.802;4.350;2022-07-29T11:57:35;5.47;;;2.58;;
22490;SDS011;11412;50.802;4.350;2022-07-29T12:00:03;3.65;;;1.80;;
22490;SDS011;11412;50.802;4.350;2022-07-29T12:02:41;4.97;;;2.60;;
22490;SDS011;11412;50.802;4.350;2022-07-29T12:05:08;6.70;;;2.45;;
22490;SDS011;11412;50.802;4.350;2022-07-29T12:07:36;6.45;;;1.63;;
22490;SDS011;11412;50.802;4.350;2022-07-29T12:10:03;3.22;;;1.67;;
22490;SDS011;11412;50.802;4.350;2022-07-29T12:12:30;5.55;;;2.28;;
22490;SDS011;11412;50.802;4.350;2022-07-29T12:14:56;3.63;;;1.85;;
22490;SDS011;11412;50.802;4.350;2022-07-29T12:17:25;5.88;;;2.00;;
22490;SDS011;11412;50.802;4.350;2022-07-29T12:19:52;6.03;;;1.85;;
22490;SDS011;11412;50.802;4.350;2022-07-29T12:22:29;3.25;;;1.70;;
22490;SDS011;11412;50.802;4.350;2022-07-29T12:25:00;5.15;;;2.03;;
22490;SDS011;11412;50.802;4.350;2022-07-29T12:27:31;5.57;;;1.90;;
22490;SDS011;11412;50.802;4.350;2022-07-29T12:29:58;4.57;;;2.17;;
22490;SDS011;11412;50.802;4.350;2022-07-29T12:32:33;2.33;;;2.10;;
22490;SDS011;11412;50.802;4.350;2022-07-29T12:35:07;4.53;;;2.08;;
22490;SDS011;11412;50.802;4.350;2022-07-29T12:37:34;6.72;;;1.70;;
22490;SDS011;11412;50.802;4.350;2022-07-29T12:40:05;8.20;;;2.03;;
22490;SDS011;11412;50.802;4.350;2022-07-29T12:42:32;4.55;;;2.47;;
22490;SDS011;11412;50.802;4.350;2022-07-29T12:44:58;4.30;;;1.90;;
22490;SDS011;11412;50.802;4.350;2022-07-29T12:47:24;3.88;;;1.67;;
22490;SDS011;11412;50.802;4.350;2022-07-29T12:49:50;3.72;;;2.10;;
22490;SDS011;11412;50.802;4.350;2022-07-29T12:52:33;4.32;;;2.08;;
22490;SDS011;11412;50.802;4.350;2022-07-29T12:54:59;1.85;;;1.30;;
22490;SDS011;11412;50.802;4.350;2022-07-29T12:57:26;7.30;;;2.20;;
22490;SDS011;11412;50.802;4.350;2022-07-29T13:00:03;4.22;;;2.10;;
22490;SDS011;11412;50.802;4.350;2022-07-29T13:02:38;3.72;;;1.80;;
22490;SDS011;11412;50.802;4.350;2022-07-29T13:05:04;4.15;;;1.70;;
22490;SDS011;11412;50.802;4.350;2022-07-29T13:07:32;4.03;;;2.30;;
22490;SDS011;11412;50.802;4.350;2022-07-29T13:10:11;2.50;;;1.60;;
22490;SDS011;11412;50.802;4.350;2022-07-29T13:15:26;4.22;;;1.60;;
22490;SDS011;11412;50.802;4.350;2022-07-29T13:17:52;4.75;;;2.13;;
22490;SDS011;11412;50.802;4.350;2022-07-29T13:20:18;5.28;;;2.28;;
22490;SDS011;11412;50.802;4.350;2022-07-29T13:22:47;5.30;;;1.70;;
22490;SDS011;11412;50.802;4.350;2022-07-29T13:25:13;5.35;;;1.30;;
22490;SDS011;11412;50.802;4.350;2022-07-29T13:27:39;5.35;;;1.42;;
22490;SDS011;11412;50.802;4.350;2022-07-29T13:30:06;2.88;;;1.30;;
22490;SDS011;11412;50.802;4.350;2022-07-29T13:32:33;1.67;;;1.27;;
22490;SDS011;11412;50.802;4.350;2022-07-29T13:35:00;6.22;;;1.15;;
22490;SDS011;11412;50.802;4.350;2022-07-29T13:37:27;2.00;;;1.27;;
22490;SDS011;11412;50.802;4.350;2022-07-29T13:39:54;5.75;;;1.50;;
22490;SDS011;11412;50.802;4.350;2022-07-29T13:42:21;2.97;;;1.30;;
22490;SDS011;11412;50.802;4.350;2022-07-29T13:44:47;4.53;;;1.40;;
22490;SDS011;11412;50.802;4.350;2022-07-29T13:47:19;2.67;;;1.20;;
22490;SDS011;11412;50.802;4.350;2022-07-29T13:49:47;2.55;;;1.60;;
22490;SDS011;11412;50.802;4.350;2022-07-29T13:52:13;2.88;;;1.50;;
22490;SDS011;11412;50.802;4.350;2022-07-29T13:54:39;3.50;;;1.85;;
22490;SDS011;11412;50.802;4.350;2022-07-29T13:57:05;5.05;;;1.75;;
22490;SDS011;11412;50.802;4.350;2022-07-29T13:59:30;5.60;;;1.30;;
22490;SDS011;11412;50.802;4.350;2022-07-29T14:01:56;4.43;;;1.67;;
22490;SDS011;11412;50.802;4.350;2022-07-29T14:04:22;1.90;;;1.63;;
22490;SDS011;11412;50.802;4.350;2022-07-29T14:06:48;2.45;;;1.42;;
22490;SDS011;11412;50.802;4.350;2022-07-29T14:09:15;9.25;;;1.40;;
22490;SDS011;11412;50.802;4.350;2022-07-29T14:11:41;3.08;;;1.33;;
22490;SDS011;11412;50.802;4.350;2022-07-29T14:14:06;3.00;;;1.20;;
22490;SDS011;11412;50.802;4.350;2022-07-29T14:16:32;3.13;;;1.30;;
22490;SDS011;11412;50.802;4.350;2022-07-29T14:18:58;3.20;;;1.35;;
22490;SDS011;11412;50.802;4.350;2022-07-29T14:21:24;7.07;;;1.35;;
22490;SDS011;11412;50.802;4.350;2022-07-29T14:23:50;7.40;;;1.52;;
22490;SDS011;11412;50.802;4.350;2022-07-29T14:26:19;1.33;;;1.23;;
22490;SDS011;11412;50.802;4.350;2022-07-29T14:28:46;5.10;;;1.17;;
22490;SDS011;11412;50.802;4.350;2022-07-29T14:31:12;2.05;;;1.10;;
22490;SDS011;11412;50.802;4.350;2022-07-29T14:33:38;3.63;;;1.70;;
22490;SDS011;11412;50.802;4.350;2022-07-29T14:36:03;1.42;;;1.20;;
22490;SDS011;11412;50.802;4.350;2022-07-29T14:38:29;2.40;;;1.40;;
22490;SDS011;11412;50.802;4.350;2022-07-29T14:40:55;4.97;;;1.30;;
22490;SDS011;11412;50.802;4.350;2022-07-29T14:43:20;2.38;;;1.60;;
22490;SDS011;11412;50.802;4.350;2022-07-29T14:45:46;3.95;;;1.40;;
22490;SDS011;11412;50.802;4.350;2022-07-29T14:48:12;5.35;;;1.42;;
22490;SDS011;11412;50.802;4.350;2022-07-29T14:50:38;5.18;;;1.40;;
22490;SDS011;11412;50.802;4.350;2022-07-29T14:53:04;3.60;;;1.10;;
22490;SDS011;11412;50.802;4.350;2022-07-29T14:55:29;2.72;;;1.30;;
22490;SDS011;11412;50.802;4.350;2022-07-29T14:57:55;1.27;;;1.17;;
22490;SDS011;11412;50.802;4.350;2022-07-29T15:00:22;1.70;;;1.00;;
22490;SDS011;11412;50.802;4.350;2022-07-29T15:02:48;3.35;;;1.45;;
22490;SDS011;11412;50.802;4.350;2022-07-29T15:05:13;1.67;;;1.40;;
22490;SDS011;11412;50.802;4.350;2022-07-29T15:07:39;3.67;;;1.27;;
22490;SDS011;11412;50.802;4.350;2022-07-29T15:10:05;1.33;;;1.23;;
22490;SDS011;11412;50.802;4.350;2022-07-29T15:12:31;1.20;;;0.95;;
22490;SDS011;11412;50.802;4.350;2022-07-29T15:14:58;1.17;;;1.00;;
22490;SDS011;11412;50.802;4.350;2022-07-29T15:17:23;1.38;;;1.20;;
22490;SDS011;11412;50.802;4.350;2022-07-29T15:19:49;3.67;;;1.20;;
22490;SDS011;11412;50.802;4.350;2022-07-29T15:22:15;1.58;;;0.98;;
22490;SDS011;11412;50.802;4.350;2022-07-29T15:24:42;6.38;;;1.67;;
22490;SDS011;11412;50.802;4.350;2022-07-29T15:27:07;3.22;;;1.58;;
22490;SDS011;11412;50.802;4.350;2022-07-29T15:29:39;2.50;;;1.20;;
22490;SDS011;11412;50.802;4.350;2022-07-29T15:32:06;6.15;;;1.30;;
22490;SDS011;11412;50.802;4.350;2022-07-29T15:34:32;4.30;;;1.30;;
22490;SDS011;11412;50.802;4.350;2022-07-29T15:36:59;5.63;;;1.80;;
22490;SDS011;11412;50.802;4.350;2022-07-29T15:39:24;1.63;;;1.27;;
22490;SDS011;11412;50.802;4.350;2022-07-29T15:41:50;2.70;;;1.30;;
22490;SDS011;11412;50.802;4.350;2022-07-29T15:44:16;2.53;;;1.42;;
22490;SDS011;11412;50.802;4.350;2022-07-29T15:46:43;7.25;;;1.58;;
22490;SDS011;11412;50.802;4.350;2022-07-29T15:49:27;2.55;;;1.85;;